createdAt,value
2023-03-20T00:02:56.526Z,57.53
2023-03-20T00:06:01.919Z,57.87
2023-03-20T00:09:08.657Z,57.65
2023-03-20T00:12:17.236Z,57.78
2023-03-20T00:15:22.507Z,58.07
2023-03-20T00:18:26.755Z,58.22
2023-03-20T00:21:31.612Z,58.91
2023-03-20T00:24:34.659Z,59.06
2023-03-20T00:27:38.041Z,59.44
2023-03-20T00:30:41.290Z,58.72
2023-03-20T00:33:43.956Z,58.56
2023-03-20T00:36:48.869Z,58.69
2023-03-20T00:39:51.858Z,58.74
2023-03-20T00:43:00.702Z,58.58
2023-03-20T00:46:08.062Z,58.84
2023-03-20T00:49:12.377Z,58.93
2023-03-20T00:52:18.563Z,58.77
2023-03-20T00:55:24.416Z,58.64
2023-03-20T00:58:27.404Z,58.68
2023-03-20T01:01:32.247Z,58.74
2023-03-20T01:04:42.293Z,58.67
2023-03-20T01:07:46.001Z,58.72
2023-03-20T01:10:52.272Z,58.96
2023-03-20T01:13:59.386Z,59.27
2023-03-20T01:17:02.120Z,59.07
2023-03-20T01:20:15.265Z,59.06
2023-03-20T01:23:20.432Z,58.91
2023-03-20T01:26:56.207Z,58.97
2023-03-20T01:29:59.224Z,58.79
2023-03-20T01:33:12.445Z,58.73
2023-03-20T01:36:22.913Z,59.09
2023-03-20T01:39:34.182Z,58.93
2023-03-20T01:42:36.990Z,58.92
2023-03-20T01:45:53.539Z,58.75
2023-03-20T01:49:00.528Z,58.84
2023-03-20T01:52:04.094Z,58.73
2023-03-20T01:55:08.933Z,58.93
2023-03-20T01:58:28.048Z,58.96
2023-03-20T02:01:31.458Z,59.56
2023-03-20T02:04:39.301Z,59.34
2023-03-20T02:07:50.765Z,59.31
2023-03-20T02:10:57.697Z,59.45
2023-03-20T02:14:01.785Z,59.11
2023-03-20T02:17:09.117Z,59.04
2023-03-20T02:20:56.909Z,59.14
2023-03-20T02:24:24.385Z,59.14
2023-03-20T02:27:52.154Z,59.30
2023-03-20T02:31:20.507Z,59.62
2023-03-20T02:35:01.605Z,59.57
2023-03-20T02:38:13.662Z,59.81
2023-03-20T02:41:38.131Z,60.16
2023-03-20T02:44:59.835Z,60.09
2023-03-20T02:48:21.058Z,60.86
2023-03-20T02:51:31.454Z,60.51
2023-03-20T02:54:47.011Z,60.53
2023-03-20T02:57:56.557Z,60.64
2023-03-20T03:01:02.193Z,60.56
2023-03-20T03:04:12.752Z,60.69
2023-03-20T03:07:19.403Z,60.84
2023-03-20T03:10:30.459Z,61.18
2023-03-20T03:13:38.894Z,61.36
2023-03-20T03:16:44.724Z,61.35
2023-03-20T03:19:52.954Z,61.55
2023-03-20T03:22:57.616Z,61.83
2023-03-20T03:26:05.156Z,62.67
2023-03-20T03:29:18.700Z,63.28
2023-03-20T03:32:37.150Z,63.47
2023-03-20T03:35:42.109Z,63.87
2023-03-20T03:39:09.020Z,64.00
2023-03-20T03:42:21.591Z,66.13
2023-03-20T03:45:49.570Z,65.10
2023-03-20T03:48:56.370Z,64.90
2023-03-20T03:52:14.724Z,65.26
2023-03-20T03:55:35.024Z,65.54
2023-03-20T03:58:49.741Z,65.58
2023-03-20T04:01:57.040Z,65.13
2023-03-20T04:05:05.136Z,64.72
2023-03-20T04:08:09.408Z,64.26
2023-03-20T04:11:17.977Z,64.13
2023-03-20T04:14:21.165Z,63.93
2023-03-20T04:17:25.540Z,63.97
2023-03-20T04:20:30.257Z,63.99
2023-03-20T04:23:42.064Z,64.04
2023-03-20T04:26:44.724Z,64.50
2023-03-20T04:29:48.266Z,65.17
2023-03-20T04:32:51.700Z,64.97
2023-03-20T04:35:56.815Z,64.94
2023-03-20T04:38:59.453Z,64.81
2023-03-20T04:42:05.681Z,65.39
2023-03-20T04:45:11.892Z,65.47
2023-03-20T04:48:16.081Z,65.57
2023-03-20T04:51:21.896Z,65.98
2023-03-20T04:54:25.693Z,65.99
2023-03-20T04:57:32.228Z,66.06
2023-03-20T05:00:35.710Z,65.94
2023-03-20T05:03:40.329Z,65.65
2023-03-20T05:06:44.524Z,65.43
2023-03-20T05:09:49.903Z,65.68
2023-03-20T05:12:53.049Z,66.11
2023-03-20T05:15:58.104Z,65.75
2023-03-20T05:19:03.028Z,65.55
2023-03-20T05:22:12.096Z,65.56
2023-03-20T05:25:16.871Z,65.97
2023-03-20T05:28:21.326Z,65.90
2023-03-20T05:31:25.748Z,65.98
2023-03-20T05:34:30.447Z,65.84
2023-03-20T05:37:36.722Z,65.95
2023-03-20T05:40:51.643Z,64.83
2023-03-20T05:43:57.245Z,64.36
2023-03-20T05:47:15.883Z,64.24
2023-03-20T05:50:23.024Z,64.57
2023-03-20T05:53:26.655Z,64.33
2023-03-20T05:56:30.560Z,64.10
2023-03-20T05:59:34.040Z,63.71
2023-03-20T06:02:38.425Z,63.37
2023-03-20T06:05:51.738Z,62.80
2023-03-20T06:08:55.469Z,62.16
2023-03-20T06:12:08.674Z,61.46
2023-03-20T06:15:14.500Z,61.00
2023-03-20T06:18:32.873Z,60.58
2023-03-20T06:21:36.369Z,59.87
2023-03-20T06:24:43.552Z,58.49
2023-03-20T06:27:56.218Z,57.38
2023-03-20T06:31:02.861Z,56.83
2023-03-20T06:34:12.145Z,55.31
2023-03-20T06:37:17.954Z,54.77
2023-03-20T06:40:22.628Z,53.65
2023-03-20T06:43:26.752Z,51.25
2023-03-20T06:46:33.996Z,50.21
2023-03-20T06:49:45.916Z,49.90
2023-03-20T06:52:56.732Z,48.86
2023-03-20T06:56:02.146Z,47.40
2023-03-20T06:59:06.543Z,44.73
2023-03-20T07:02:17.086Z,43.00
2023-03-20T07:05:29.978Z,42.00
2023-03-20T07:08:41.394Z,42.02
2023-03-20T07:11:45.267Z,41.88
2023-03-20T07:14:53.690Z,40.82
2023-03-20T07:17:57.363Z,40.41
2023-03-20T07:21:06.749Z,39.54
2023-03-20T07:24:12.710Z,38.06
2023-03-20T07:27:18.880Z,38.25
2023-03-20T07:30:22.072Z,36.53
2023-03-20T07:33:26.358Z,38.05
2023-03-20T07:36:33.782Z,36.99
2023-03-20T07:39:38.764Z,36.27
2023-03-20T07:42:47.511Z,35.54
2023-03-20T07:45:56.805Z,36.87
2023-03-20T07:49:00.259Z,36.63
2023-03-20T07:52:05.125Z,36.17
2023-03-20T07:55:09.292Z,37.49
2023-03-20T07:58:12.796Z,36.39
2023-03-20T08:01:23.647Z,37.17
2023-03-20T08:04:33.024Z,35.83
2023-03-20T08:07:36.873Z,36.24
2023-03-20T08:10:41.760Z,37.06
2023-03-20T08:13:48.193Z,34.34
2023-03-20T08:17:06.198Z,33.59
2023-03-20T08:20:23.600Z,34.31
2023-03-20T08:23:29.778Z,32.80
2023-03-20T08:26:33.394Z,33.11
2023-03-20T08:29:37.695Z,31.93
2023-03-20T08:32:45.306Z,31.11
2023-03-20T08:36:02.780Z,30.42
2023-03-20T08:39:07.548Z,31.17
2023-03-20T08:42:10.611Z,31.17
2023-03-20T08:45:15.722Z,29.84
2023-03-20T08:48:26.770Z,30.68
2023-03-20T08:51:30.290Z,30.16
2023-03-20T08:54:34.911Z,29.66
2023-03-20T08:57:38.544Z,29.63
2023-03-20T09:00:45.867Z,29.01
2023-03-20T09:03:49.936Z,30.50
2023-03-20T09:06:55.099Z,30.15
2023-03-20T09:09:58.296Z,30.24
2023-03-20T09:13:09.520Z,30.66
2023-03-20T09:16:20.094Z,31.32
2023-03-20T09:19:34.598Z,32.09
2023-03-20T09:22:41.357Z,31.68
2023-03-20T09:25:46.064Z,31.64
2023-03-20T09:28:49.457Z,31.46
2023-03-20T09:31:54.736Z,31.11
2023-03-20T09:34:58.011Z,32.21
2023-03-20T09:38:01.658Z,31.94
2023-03-20T09:41:05.532Z,33.21
2023-03-20T09:44:45.656Z,31.67
2023-03-20T09:47:59.646Z,32.11
2023-03-20T09:51:32.035Z,32.22
2023-03-20T09:54:53.955Z,31.96
2023-03-20T09:58:03.163Z,31.38
2023-03-20T10:01:14.890Z,31.14
2023-03-20T10:04:19.101Z,31.06
2023-03-20T10:07:23.985Z,31.69
2023-03-20T10:10:43.921Z,30.83
2023-03-20T10:13:59.944Z,31.29
2023-03-20T10:17:24.934Z,31.19
2023-03-20T10:20:42.149Z,31.81
2023-03-20T10:24:09.980Z,32.03
2023-03-20T10:27:26.257Z,32.68
2023-03-20T10:30:46.120Z,31.91
2023-03-20T10:33:52.797Z,32.07
2023-03-20T10:37:22.762Z,31.88
2023-03-20T10:40:39.566Z,30.82
2023-03-20T10:43:46.255Z,30.77
2023-03-20T10:46:53.702Z,31.68
2023-03-20T10:50:11.989Z,29.40
2023-03-20T10:53:25.735Z,31.68
2023-03-20T10:56:44.265Z,32.30
2023-03-20T10:59:57.757Z,32.13
2023-03-20T11:03:05.824Z,32.73
2023-03-20T11:06:23.189Z,30.82
2023-03-20T11:09:39.676Z,32.03
2023-03-20T11:12:50.510Z,33.08
2023-03-20T11:15:56.884Z,32.97
2023-03-20T11:19:09.032Z,32.73
2023-03-20T11:22:19.884Z,34.16
2023-03-20T11:25:47.108Z,33.86
2023-03-20T11:29:03.854Z,32.59
2023-03-20T11:32:29.138Z,33.34
2023-03-20T11:35:33.700Z,33.86
2023-03-20T11:38:44.456Z,33.87
2023-03-20T11:41:53.734Z,33.65
2023-03-20T11:44:59.674Z,33.74
2023-03-20T11:48:18.223Z,33.90
2023-03-20T11:51:23.088Z,34.26
2023-03-20T11:54:34.325Z,34.82
2023-03-20T11:57:44.463Z,34.23
2023-03-20T12:00:57.930Z,34.46
2023-03-20T12:04:06.100Z,34.35
2023-03-20T12:07:37.066Z,33.17
2023-03-20T12:10:46.336Z,34.11
2023-03-20T12:13:56.151Z,34.51
2023-03-20T12:17:26.235Z,34.84
2023-03-20T12:20:45.123Z,34.05
2023-03-20T12:24:07.065Z,34.62
2023-03-20T12:27:33.482Z,34.27
2023-03-20T12:30:51.329Z,34.60
2023-03-20T12:34:01.973Z,34.96
2023-03-20T12:37:11.204Z,34.71
2023-03-20T12:40:19.125Z,35.51
2023-03-20T12:43:35.725Z,35.36
2023-03-20T12:47:07.943Z,35.04
2023-03-20T12:50:27.155Z,35.69
2023-03-20T12:53:55.172Z,35.41
2023-03-20T12:57:29.738Z,35.74
2023-03-20T13:00:52.455Z,35.88
2023-03-20T13:04:07.758Z,36.02
2023-03-20T13:07:39.544Z,36.68
2023-03-20T13:11:11.260Z,36.03
2023-03-20T13:15:03.726Z,36.14
2023-03-20T13:18:42.398Z,36.18
2023-03-20T13:22:24.018Z,36.17
2023-03-20T13:26:02.007Z,36.31
2023-03-20T13:29:27.470Z,36.60
2023-03-20T13:32:58.453Z,36.46
2023-03-20T13:36:39.357Z,36.63
2023-03-20T13:40:00.763Z,36.61
2023-03-20T13:43:13.941Z,36.82
2023-03-20T13:46:33.815Z,36.85
2023-03-20T13:49:43.089Z,36.93
2023-03-20T13:53:07.847Z,37.55
2023-03-20T13:56:40.764Z,37.10
2023-03-20T14:00:15.767Z,37.92
2023-03-20T14:03:35.205Z,37.61
2023-03-20T14:06:52.746Z,37.44
2023-03-20T14:10:07.930Z,37.77
2023-03-20T14:13:19.718Z,37.86
2023-03-20T14:16:29.919Z,38.00
2023-03-20T14:19:36.168Z,38.63
2023-03-20T14:22:45.705Z,38.27
2023-03-20T14:25:55.874Z,38.45
2023-03-20T14:29:03.316Z,38.50
2023-03-20T14:32:22.632Z,38.65
2023-03-20T14:35:29.787Z,39.19
2023-03-20T14:38:54.772Z,39.39
2023-03-20T14:42:13.923Z,39.54
2023-03-20T14:45:48.545Z,39.71
2023-03-20T14:48:56.095Z,39.98
2023-03-20T14:52:50.422Z,40.00
2023-03-20T14:55:58.019Z,40.15
2023-03-20T14:59:07.445Z,39.97
2023-03-20T15:02:37.793Z,39.87
2023-03-20T15:05:54.769Z,40.12
2023-03-20T15:09:10.780Z,40.39
2023-03-20T15:12:32.853Z,40.54
2023-03-20T15:16:05.681Z,40.67
2023-03-20T15:19:20.696Z,40.92
2023-03-20T15:22:24.266Z,41.90
2023-03-20T15:25:35.938Z,41.78
2023-03-20T15:28:43.206Z,42.00
2023-03-20T15:32:13.386Z,42.17
2023-03-20T15:35:28.214Z,42.73
2023-03-20T15:38:36.722Z,42.95
2023-03-20T15:41:51.772Z,43.20
2023-03-20T15:44:56.460Z,43.17
2023-03-20T15:48:06.831Z,43.44
2023-03-20T15:51:16.804Z,43.61
2023-03-20T15:54:28.780Z,43.65
2023-03-20T15:57:41.051Z,44.49
2023-03-20T16:00:51.483Z,44.04
2023-03-20T16:04:02.898Z,44.13
2023-03-20T16:07:36.625Z,44.07
2023-03-20T16:10:44.996Z,44.29
2023-03-20T16:13:52.937Z,44.47
2023-03-20T16:17:04.228Z,45.15
2023-03-20T16:20:20.254Z,44.84
2023-03-20T16:23:38.106Z,45.13
2023-03-20T16:26:46.198Z,45.34
2023-03-20T16:29:54.501Z,45.28
2023-03-20T16:33:15.810Z,45.75
2023-03-20T16:36:29.928Z,46.15
2023-03-20T16:39:36.709Z,46.36
2023-03-20T16:42:55.760Z,46.76
2023-03-20T16:46:07.162Z,47.25
2023-03-20T16:49:37.949Z,47.72
2023-03-20T16:52:49.052Z,48.49
2023-03-20T16:56:04.621Z,48.92
2023-03-20T16:59:30.353Z,49.24
2023-03-20T17:02:41.228Z,49.59
2023-03-20T17:05:55.665Z,50.12
2023-03-20T17:09:22.137Z,50.43
2023-03-20T17:12:44.688Z,50.81
2023-03-20T17:15:59.784Z,51.29
2023-03-20T17:19:20.582Z,51.57
2023-03-20T17:22:31.716Z,51.96
2023-03-20T17:25:45.961Z,52.38
2023-03-20T17:28:58.121Z,52.84
2023-03-20T17:32:01.757Z,53.38
2023-03-20T17:35:08.578Z,53.83
2023-03-20T17:38:23.872Z,54.18
2023-03-20T17:41:36.646Z,54.49
2023-03-20T17:44:41.845Z,54.88
2023-03-20T17:47:51.716Z,55.35
2023-03-20T17:51:07.814Z,55.69
2023-03-20T17:54:19.065Z,56.14
2023-03-20T17:57:37.984Z,57.08
2023-03-20T18:00:43.603Z,57.30
2023-03-20T18:03:50.796Z,57.16
2023-03-20T18:07:14.732Z,57.58
2023-03-20T18:10:26.896Z,57.83
2023-03-20T18:13:45.661Z,57.83
2023-03-20T18:16:52.804Z,57.84
2023-03-20T18:20:08.662Z,58.36
2023-03-20T18:23:12.967Z,58.85
2023-03-20T18:26:23.052Z,59.33
2023-03-20T18:29:37.128Z,59.96
2023-03-20T18:32:40.740Z,59.81
2023-03-20T18:35:46.829Z,60.88
2023-03-20T18:38:55.971Z,60.94
2023-03-20T18:42:12.998Z,60.82
2023-03-20T18:45:22.706Z,61.24
2023-03-20T18:48:29.743Z,61.64
2023-03-20T18:51:36.405Z,61.85
2023-03-20T18:54:41.789Z,61.79
2023-03-20T18:57:49.160Z,62.33
2023-03-20T19:01:00.438Z,62.31
2023-03-20T19:04:04.872Z,61.81
2023-03-20T19:07:13.227Z,62.11
2023-03-20T19:10:27.807Z,62.98
2023-03-20T19:13:49.978Z,63.22
2023-03-20T19:16:55.165Z,63.29
2023-03-20T19:19:59.698Z,62.87
2023-03-20T19:23:11.720Z,62.73
2023-03-20T19:26:36.639Z,63.15
2023-03-20T19:29:46.636Z,62.74
2023-03-20T19:32:51.719Z,63.43
2023-03-20T19:36:03.613Z,63.21
2023-03-20T19:39:16.356Z,62.78
2023-03-20T19:42:53.132Z,62.44
2023-03-20T19:45:59.408Z,62.42
2023-03-20T19:49:30.238Z,61.95
2023-03-20T19:52:45.929Z,62.02
2023-03-20T19:56:01.759Z,62.15
2023-03-20T19:59:07.276Z,62.02
2023-03-20T20:02:25.740Z,62.06
2023-03-20T20:05:42.142Z,62.16
2023-03-20T20:08:49.294Z,62.04
2023-03-20T20:11:55.193Z,62.07
2023-03-20T20:14:59.341Z,62.21
2023-03-20T20:18:07.746Z,62.21
2023-03-20T20:22:09.852Z,62.21
2023-03-20T20:24:37.761Z,62.53
2023-03-20T20:27:43.876Z,62.91
2023-03-20T20:30:53.909Z,63.06
2023-03-20T20:35:01.107Z,63.14
2023-03-20T20:38:14.035Z,63.53
2023-03-20T20:40:59.745Z,63.55
2023-03-20T20:44:15.625Z,63.97
2023-03-20T20:47:21.962Z,64.44
2023-03-20T20:50:32.436Z,64.75
2023-03-20T20:53:40.790Z,64.95
2023-03-20T20:56:46.933Z,65.58
2023-03-20T20:59:59.421Z,65.61
2023-03-20T21:03:04.986Z,65.94
2023-03-20T21:06:11.790Z,66.60
2023-03-20T21:09:17.814Z,66.98
2023-03-20T21:12:34.837Z,66.86
2023-03-20T21:15:41.100Z,66.89
2023-03-20T21:18:45.800Z,67.88
2023-03-20T21:21:55.385Z,67.83
2023-03-20T21:25:13.926Z,69.44
2023-03-20T21:28:18.669Z,68.59
2023-03-20T21:31:28.587Z,68.82
2023-03-20T21:34:41.753Z,68.93
2023-03-20T21:41:10.766Z,69.93
2023-03-20T21:44:56.230Z,70.84
2023-03-20T21:48:25.734Z,70.94
2023-03-20T21:52:11.244Z,71.47
2023-03-20T21:55:10.290Z,71.53
2023-03-20T22:01:58.835Z,72.32
2023-03-20T22:09:18.626Z,72.51
2023-03-20T22:19:29.445Z,73.83
2023-03-20T22:22:55.221Z,73.63
2023-03-20T22:26:18.293Z,74.39
2023-03-20T22:33:03.560Z,73.87
2023-03-20T22:36:19.905Z,73.52
2023-03-20T22:39:39.591Z,73.92
2023-03-20T22:46:07.797Z,73.98
2023-03-20T22:49:16.071Z,74.31
2023-03-20T22:52:31.796Z,74.49
2023-03-20T22:55:44.241Z,74.60
2023-03-20T22:58:49.019Z,75.11
2023-03-20T23:01:58.222Z,75.61
2023-03-20T23:05:01.994Z,75.77
2023-03-20T23:08:06.434Z,75.68
2023-03-20T23:11:10.013Z,76.19
2023-03-20T23:14:21.109Z,76.44
2023-03-20T23:17:27.140Z,76.88
2023-03-20T23:20:30.313Z,77.16
2023-03-20T23:23:35.918Z,78.03
2023-03-20T23:26:38.881Z,79.08
2023-03-20T23:29:41.820Z,78.43
2023-03-20T23:32:46.042Z,78.77
2023-03-20T23:35:49.804Z,78.33
2023-03-20T23:38:54.029Z,78.85
2023-03-20T23:42:20.290Z,78.79
2023-03-20T23:45:23.799Z,78.69
2023-03-20T23:48:28.397Z,79.27
2023-03-20T23:51:31.035Z,78.94
2023-03-20T23:54:34.146Z,79.02
2023-03-20T23:57:37.687Z,78.34
